KLTS

Altus Air Force Base

Airport
ICAO code
KLTS
Summary
ICAO Region
NAM
ICAO Territory
Location

Altus, Oklahoma,

Coordinates
34° 39' 2" N , 99° 16' 54" W
KCC
Metar
Observation
KLTS 070855Z AUTO 35005KT 10SM OVC095 21/10 A3022 RMK AO2 DZE05 SLP219 P0000 60000 T02130098 52008 $
Station
Altus Air Force Base
Date/Time
2022-10-07 08:55:00
Wind direction
350°
Wind speed
05 kts
Lowest cloud amount
overcast
Temperature
21.3°C
Dew point
9.8°C
Humidity
47%
Weather condition
n/a

Description

Altus Air Force Base is a United States Air Force installation located approximately 6 km east-northeast of the central business district of Altus, Oklahoma.

Climatology

Dry “subtropical” climate (Köppen climate classification Cfa) - characterized by hot summers and cool, occasionally cold winters. Winter rainfall (and sometimes snowfall) is associated with large storms that the westerlies steer from west to east. Most summer rainfall occurs during thunderstorms.

Runways

Designator Length Width Surface Rops
17/35 1067 29 ASP No/No
174/354 1067 29 ASPH No/No
17L/35R 2743 46 ASP Yes/Yes
17R/35L 4097 46 CON Yes/Yes

Airport map

Aerial View

SKYbrary Partners:

Safety knowledge contributed by: